sensor_id;sensor_type;location;lat;lon;timestamp;P1;durP1;ratioP1;P2;durP2;ratioP2
55330;SDS011;58851;42.984;20.336;2024-01-07T00:00:42;27.98;;;17.35;;
55330;SDS011;58851;42.984;20.336;2024-01-07T00:03:07;22.20;;;13.52;;
55330;SDS011;58851;42.984;20.336;2024-01-07T00:05:35;22.40;;;12.63;;
55330;SDS011;58851;42.984;20.336;2024-01-07T00:08:02;20.30;;;14.63;;
55330;SDS011;58851;42.984;20.336;2024-01-07T00:10:28;44.08;;;25.90;;
55330;SDS011;58851;42.984;20.336;2024-01-07T00:12:54;48.42;;;35.78;;
55330;SDS011;58851;42.984;20.336;2024-01-07T00:15:20;51.03;;;30.33;;
55330;SDS011;58851;42.984;20.336;2024-01-07T00:17:45;34.85;;;22.73;;
55330;SDS011;58851;42.984;20.336;2024-01-07T00:20:11;37.10;;;21.60;;
55330;SDS011;58851;42.984;20.336;2024-01-07T00:22:37;28.00;;;16.55;;
55330;SDS011;58851;42.984;20.336;2024-01-07T00:25:03;17.98;;;14.25;;
55330;SDS011;58851;42.984;20.336;2024-01-07T00:27:29;20.63;;;13.27;;
55330;SDS011;58851;42.984;20.336;2024-01-07T00:29:55;16.23;;;10.45;;
55330;SDS011;58851;42.984;20.336;2024-01-07T00:32:21;13.82;;;9.90;;
55330;SDS011;58851;42.984;20.336;2024-01-07T00:34:47;16.42;;;10.45;;
55330;SDS011;58851;42.984;20.336;2024-01-07T00:37:13;29.10;;;15.93;;
55330;SDS011;58851;42.984;20.336;2024-01-07T00:39:38;28.70;;;16.10;;
55330;SDS011;58851;42.984;20.336;2024-01-07T00:42:07;19.65;;;13.20;;
55330;SDS011;58851;42.984;20.336;2024-01-07T00:44:32;23.58;;;14.70;;
55330;SDS011;58851;42.984;20.336;2024-01-07T00:46:58;26.65;;;16.10;;
55330;SDS011;58851;42.984;20.336;2024-01-07T00:49:24;25.52;;;14.35;;
55330;SDS011;58851;42.984;20.336;2024-01-07T00:51:50;15.80;;;11.65;;
55330;SDS011;58851;42.984;20.336;2024-01-07T00:54:16;30.75;;;18.17;;
55330;SDS011;58851;42.984;20.336;2024-01-07T00:56:41;20.02;;;14.48;;
55330;SDS011;58851;42.984;20.336;2024-01-07T00:59:07;21.85;;;12.38;;
55330;SDS011;58851;42.984;20.336;2024-01-07T01:01:33;20.50;;;12.05;;
55330;SDS011;58851;42.984;20.336;2024-01-07T01:03:59;12.68;;;9.05;;
55330;SDS011;58851;42.984;20.336;2024-01-07T01:06:24;18.92;;;10.25;;
55330;SDS011;58851;42.984;20.336;2024-01-07T01:08:50;20.52;;;12.38;;
55330;SDS011;58851;42.984;20.336;2024-01-07T01:11:16;18.67;;;10.85;;
55330;SDS011;58851;42.984;20.336;2024-01-07T01:13:42;21.63;;;10.00;;
55330;SDS011;58851;42.984;20.336;2024-01-07T01:16:07;24.98;;;13.00;;
55330;SDS011;58851;42.984;20.336;2024-01-07T01:18:33;42.30;;;23.42;;
55330;SDS011;58851;42.984;20.336;2024-01-07T01:20:59;34.15;;;18.88;;
55330;SDS011;58851;42.984;20.336;2024-01-07T01:23:25;35.67;;;17.90;;
55330;SDS011;58851;42.984;20.336;2024-01-07T01:25:51;24.50;;;15.43;;
55330;SDS011;58851;42.984;20.336;2024-01-07T01:28:16;15.60;;;11.38;;
55330;SDS011;58851;42.984;20.336;2024-01-07T01:30:42;21.52;;;13.00;;
55330;SDS011;58851;42.984;20.336;2024-01-07T01:33:08;19.40;;;11.07;;
55330;SDS011;58851;42.984;20.336;2024-01-07T01:35:34;14.93;;;10.70;;
55330;SDS011;58851;42.984;20.336;2024-01-07T01:37:59;28.83;;;16.35;;
55330;SDS011;58851;42.984;20.336;2024-01-07T01:40:25;20.35;;;12.13;;
55330;SDS011;58851;42.984;20.336;2024-01-07T01:42:51;14.93;;;10.88;;
55330;SDS011;58851;42.984;20.336;2024-01-07T01:45:17;18.42;;;10.95;;
55330;SDS011;58851;42.984;20.336;2024-01-07T01:47:44;21.27;;;14.05;;
55330;SDS011;58851;42.984;20.336;2024-01-07T01:50:11;19.50;;;12.77;;
55330;SDS011;58851;42.984;20.336;2024-01-07T01:52:37;16.45;;;10.70;;
55330;SDS011;58851;42.984;20.336;2024-01-07T01:55:04;18.50;;;11.43;;
55330;SDS011;58851;42.984;20.336;2024-01-07T01:57:32;18.33;;;10.80;;
55330;SDS011;58851;42.984;20.336;2024-01-07T02:00:05;20.35;;;11.38;;
55330;SDS011;58851;42.984;20.336;2024-01-07T02:02:31;15.35;;;11.23;;
55330;SDS011;58851;42.984;20.336;2024-01-07T02:05:00;16.98;;;11.52;;
55330;SDS011;58851;42.984;20.336;2024-01-07T02:07:27;20.50;;;13.90;;
55330;SDS011;58851;42.984;20.336;2024-01-07T02:09:55;17.05;;;11.13;;
55330;SDS011;58851;42.984;20.336;2024-01-07T02:12:20;21.02;;;12.50;;
55330;SDS011;58851;42.984;20.336;2024-01-07T02:14:46;14.68;;;11.77;;
55330;SDS011;58851;42.984;20.336;2024-01-07T02:17:12;22.70;;;14.60;;
55330;SDS011;58851;42.984;20.336;2024-01-07T02:19:38;16.85;;;12.27;;
55330;SDS011;58851;42.984;20.336;2024-01-07T02:22:04;28.35;;;20.02;;
55330;SDS011;58851;42.984;20.336;2024-01-07T02:24:30;24.88;;;16.52;;
55330;SDS011;58851;42.984;20.336;2024-01-07T02:26:56;20.85;;;13.18;;
55330;SDS011;58851;42.984;20.336;2024-01-07T02:29:22;27.55;;;17.02;;
55330;SDS011;58851;42.984;20.336;2024-01-07T02:31:48;21.63;;;13.85;;
55330;SDS011;58851;42.984;20.336;2024-01-07T02:34:14;23.67;;;14.20;;
55330;SDS011;58851;42.984;20.336;2024-01-07T02:36:39;20.48;;;16.23;;
55330;SDS011;58851;42.984;20.336;2024-01-07T02:39:05;17.90;;;12.10;;
55330;SDS011;58851;42.984;20.336;2024-01-07T02:41:31;17.00;;;13.13;;
55330;SDS011;58851;42.984;20.336;2024-01-07T02:43:57;14.05;;;10.48;;
55330;SDS011;58851;42.984;20.336;2024-01-07T02:46:23;14.35;;;9.02;;
55330;SDS011;58851;42.984;20.336;2024-01-07T02:48:49;10.40;;;8.13;;
55330;SDS011;58851;42.984;20.336;2024-01-07T02:51:15;13.70;;;8.25;;
55330;SDS011;58851;42.984;20.336;2024-01-07T02:53:41;13.65;;;10.00;;
55330;SDS011;58851;42.984;20.336;2024-01-07T02:56:07;28.42;;;17.23;;
55330;SDS011;58851;42.984;20.336;2024-01-07T02:58:33;41.28;;;30.42;;
55330;SDS011;58851;42.984;20.336;2024-01-07T03:00:59;54.15;;;31.95;;
55330;SDS011;58851;42.984;20.336;2024-01-07T03:03:25;35.63;;;23.50;;
55330;SDS011;58851;42.984;20.336;2024-01-07T03:05:51;33.28;;;21.85;;
55330;SDS011;58851;42.984;20.336;2024-01-07T03:08:17;39.90;;;25.15;;
55330;SDS011;58851;42.984;20.336;2024-01-07T03:10:42;41.17;;;26.92;;
55330;SDS011;58851;42.984;20.336;2024-01-07T03:13:08;72.10;;;42.85;;
55330;SDS011;58851;42.984;20.336;2024-01-07T03:15:34;103.10;;;57.75;;
55330;SDS011;58851;42.984;20.336;2024-01-07T03:18:00;108.65;;;59.83;;
55330;SDS011;58851;42.984;20.336;2024-01-07T03:20:26;77.15;;;44.88;;
55330;SDS011;58851;42.984;20.336;2024-01-07T03:22:52;36.13;;;24.60;;
55330;SDS011;58851;42.984;20.336;2024-01-07T03:25:18;37.83;;;23.42;;
55330;SDS011;58851;42.984;20.336;2024-01-07T03:27:44;33.15;;;21.77;;
55330;SDS011;58851;42.984;20.336;2024-01-07T03:30:10;27.73;;;17.80;;
55330;SDS011;58851;42.984;20.336;2024-01-07T03:32:36;20.88;;;14.10;;
55330;SDS011;58851;42.984;20.336;2024-01-07T03:35:02;22.52;;;14.98;;
55330;SDS011;58851;42.984;20.336;2024-01-07T03:37:28;35.72;;;21.30;;
55330;SDS011;58851;42.984;20.336;2024-01-07T03:39:54;20.38;;;14.32;;
55330;SDS011;58851;42.984;20.336;2024-01-07T03:42:19;27.33;;;15.77;;
55330;SDS011;58851;42.984;20.336;2024-01-07T03:44:45;14.80;;;8.90;;
55330;SDS011;58851;42.984;20.336;2024-01-07T03:47:11;15.63;;;10.80;;
55330;SDS011;58851;42.984;20.336;2024-01-07T03:49:37;36.60;;;20.13;;
55330;SDS011;58851;42.984;20.336;2024-01-07T03:52:04;40.38;;;23.85;;
55330;SDS011;58851;42.984;20.336;2024-01-07T03:54:31;32.67;;;24.15;;
55330;SDS011;58851;42.984;20.336;2024-01-07T03:56:57;22.30;;;18.70;;
55330;SDS011;58851;42.984;20.336;2024-01-07T03:59:23;29.77;;;19.25;;
55330;SDS011;58851;42.984;20.336;2024-01-07T04:01:50;24.98;;;17.70;;
55330;SDS011;58851;42.984;20.336;2024-01-07T04:04:18;26.85;;;17.08;;
55330;SDS011;58851;42.984;20.336;2024-01-07T04:06:43;33.40;;;21.20;;
55330;SDS011;58851;42.984;20.336;2024-01-07T04:09:09;49.50;;;28.55;;
55330;SDS011;58851;42.984;20.336;2024-01-07T04:11:41;64.47;;;34.78;;
55330;SDS011;58851;42.984;20.336;2024-01-07T04:14:08;87.93;;;48.53;;
55330;SDS011;58851;42.984;20.336;2024-01-07T04:16:34;67.38;;;39.40;;
55330;SDS011;58851;42.984;20.336;2024-01-07T04:19:00;62.75;;;33.58;;
55330;SDS011;58851;42.984;20.336;2024-01-07T04:21:26;34.42;;;22.92;;
55330;SDS011;58851;42.984;20.336;2024-01-07T04:23:52;27.60;;;18.67;;
55330;SDS011;58851;42.984;20.336;2024-01-07T04:26:18;32.63;;;19.85;;
55330;SDS011;58851;42.984;20.336;2024-01-07T04:28:44;138.38;;;74.13;;
55330;SDS011;58851;42.984;20.336;2024-01-07T04:31:09;82.85;;;49.13;;
55330;SDS011;58851;42.984;20.336;2024-01-07T04:33:35;67.70;;;43.17;;
55330;SDS011;58851;42.984;20.336;2024-01-07T04:36:01;83.68;;;48.83;;
55330;SDS011;58851;42.984;20.336;2024-01-07T04:38:29;95.57;;;55.35;;
55330;SDS011;58851;42.984;20.336;2024-01-07T04:40:55;62.03;;;40.08;;
55330;SDS011;58851;42.984;20.336;2024-01-07T04:43:20;73.38;;;42.92;;
55330;SDS011;58851;42.984;20.336;2024-01-07T04:45:46;61.55;;;34.30;;
55330;SDS011;58851;42.984;20.336;2024-01-07T04:48:13;53.92;;;34.95;;
55330;SDS011;58851;42.984;20.336;2024-01-07T04:50:39;60.55;;;39.60;;
55330;SDS011;58851;42.984;20.336;2024-01-07T04:53:07;66.22;;;39.55;;
55330;SDS011;58851;42.984;20.336;2024-01-07T04:55:34;75.00;;;44.63;;
55330;SDS011;58851;42.984;20.336;2024-01-07T04:58:00;50.28;;;31.70;;
55330;SDS011;58851;42.984;20.336;2024-01-07T05:00:26;54.47;;;35.83;;
55330;SDS011;58851;42.984;20.336;2024-01-07T05:02:52;53.63;;;34.97;;
55330;SDS011;58851;42.984;20.336;2024-01-07T05:05:18;67.10;;;45.78;;
55330;SDS011;58851;42.984;20.336;2024-01-07T05:07:44;60.33;;;39.88;;
55330;SDS011;58851;42.984;20.336;2024-01-07T05:10:10;53.15;;;35.55;;
55330;SDS011;58851;42.984;20.336;2024-01-07T05:12:36;55.60;;;34.20;;
55330;SDS011;58851;42.984;20.336;2024-01-07T05:15:02;64.32;;;39.42;;
55330;SDS011;58851;42.984;20.336;2024-01-07T05:17:28;60.33;;;38.63;;
55330;SDS011;58851;42.984;20.336;2024-01-07T05:19:54;61.97;;;40.15;;
55330;SDS011;58851;42.984;20.336;2024-01-07T05:22:21;72.05;;;41.95;;
55330;SDS011;58851;42.984;20.336;2024-01-07T05:24:47;60.67;;;40.53;;
55330;SDS011;58851;42.984;20.336;2024-01-07T05:27:13;66.55;;;42.03;;
55330;SDS011;58851;42.984;20.336;2024-01-07T05:29:38;78.70;;;52.65;;
55330;SDS011;58851;42.984;20.336;2024-01-07T05:32:05;98.35;;;58.13;;
55330;SDS011;58851;42.984;20.336;2024-01-07T05:34:31;102.15;;;58.90;;
55330;SDS011;58851;42.984;20.336;2024-01-07T05:36:57;96.65;;;57.45;;
55330;SDS011;58851;42.984;20.336;2024-01-07T05:39:23;72.15;;;46.60;;
55330;SDS011;58851;42.984;20.336;2024-01-07T05:41:49;55.40;;;40.33;;
55330;SDS011;58851;42.984;20.336;2024-01-07T05:44:14;59.38;;;38.58;;
55330;SDS011;58851;42.984;20.336;2024-01-07T05:46:40;45.47;;;32.25;;
55330;SDS011;58851;42.984;20.336;2024-01-07T05:49:06;50.63;;;33.03;;
55330;SDS011;58851;42.984;20.336;2024-01-07T05:51:33;53.85;;;35.10;;
55330;SDS011;58851;42.984;20.336;2024-01-07T05:53:59;48.60;;;32.88;;
55330;SDS011;58851;42.984;20.336;2024-01-07T05:56:24;56.75;;;35.85;;
55330;SDS011;58851;42.984;20.336;2024-01-07T05:58:51;43.83;;;29.58;;
55330;SDS011;58851;42.984;20.336;2024-01-07T06:01:19;45.22;;;29.58;;
55330;SDS011;58851;42.984;20.336;2024-01-07T06:03:46;38.05;;;27.05;;
55330;SDS011;58851;42.984;20.336;2024-01-07T06:06:15;47.33;;;31.30;;
55330;SDS011;58851;42.984;20.336;2024-01-07T06:08:41;44.63;;;32.03;;
55330;SDS011;58851;42.984;20.336;2024-01-07T06:11:07;47.92;;;33.35;;
55330;SDS011;58851;42.984;20.336;2024-01-07T06:13:33;59.17;;;38.67;;
55330;SDS011;58851;42.984;20.336;2024-01-07T06:15:59;79.15;;;50.30;;
55330;SDS011;58851;42.984;20.336;2024-01-07T06:18:25;72.70;;;49.40;;
55330;SDS011;58851;42.984;20.336;2024-01-07T06:20:51;64.55;;;41.28;;
55330;SDS011;58851;42.984;20.336;2024-01-07T06:23:16;71.28;;;46.10;;
55330;SDS011;58851;42.984;20.336;2024-01-07T06:25:43;62.22;;;37.38;;
55330;SDS011;58851;42.984;20.336;2024-01-07T06:28:09;55.67;;;36.97;;
55330;SDS011;58851;42.984;20.336;2024-01-07T06:30:37;74.00;;;50.15;;
55330;SDS011;58851;42.984;20.336;2024-01-07T06:33:03;70.43;;;47.83;;
55330;SDS011;58851;42.984;20.336;2024-01-07T06:35:30;108.00;;;67.00;;
55330;SDS011;58851;42.984;20.336;2024-01-07T06:37:56;105.47;;;65.22;;
55330;SDS011;58851;42.984;20.336;2024-01-07T06:40:22;100.00;;;62.90;;
55330;SDS011;58851;42.984;20.336;2024-01-07T06:42:48;94.75;;;61.50;;
55330;SDS011;58851;42.984;20.336;2024-01-07T06:45:15;92.88;;;63.70;;
55330;SDS011;58851;42.984;20.336;2024-01-07T06:47:41;79.32;;;54.33;;
55330;SDS011;58851;42.984;20.336;2024-01-07T06:50:08;86.45;;;57.42;;
55330;SDS011;58851;42.984;20.336;2024-01-07T06:52:35;88.88;;;59.15;;
55330;SDS011;58851;42.984;20.336;2024-01-07T06:55:01;93.53;;;62.47;;
55330;SDS011;58851;42.984;20.336;2024-01-07T06:57:26;104.97;;;73.15;;
55330;SDS011;58851;42.984;20.336;2024-01-07T06:59:52;98.68;;;71.05;;
55330;SDS011;58851;42.984;20.336;2024-01-07T07:02:19;87.43;;;63.38;;
55330;SDS011;58851;42.984;20.336;2024-01-07T07:04:46;101.07;;;70.28;;
55330;SDS011;58851;42.984;20.336;2024-01-07T07:07:13;125.22;;;80.60;;
55330;SDS011;58851;42.984;20.336;2024-01-07T07:09:40;121.28;;;74.60;;
55330;SDS011;58851;42.984;20.336;2024-01-07T07:12:06;106.25;;;74.22;;
55330;SDS011;58851;42.984;20.336;2024-01-07T07:14:32;102.57;;;69.57;;
55330;SDS011;58851;42.984;20.336;2024-01-07T07:16:58;84.28;;;58.38;;
55330;SDS011;58851;42.984;20.336;2024-01-07T07:19:24;90.85;;;58.03;;
55330;SDS011;58851;42.984;20.336;2024-01-07T07:21:50;161.07;;;107.55;;
55330;SDS011;58851;42.984;20.336;2024-01-07T07:24:16;142.00;;;93.93;;
55330;SDS011;58851;42.984;20.336;2024-01-07T07:26:41;153.10;;;106.53;;
55330;SDS011;58851;42.984;20.336;2024-01-07T07:29:10;124.40;;;87.75;;
55330;SDS011;58851;42.984;20.336;2024-01-07T07:31:36;130.98;;;92.47;;
55330;SDS011;58851;42.984;20.336;2024-01-07T07:34:05;126.63;;;84.32;;
55330;SDS011;58851;42.984;20.336;2024-01-07T07:36:34;109.07;;;76.57;;
55330;SDS011;58851;42.984;20.336;2024-01-07T07:38:59;144.23;;;98.28;;
55330;SDS011;58851;42.984;20.336;2024-01-07T07:41:25;148.93;;;102.43;;
55330;SDS011;58851;42.984;20.336;2024-01-07T07:43:51;128.63;;;92.50;;
55330;SDS011;58851;42.984;20.336;2024-01-07T07:46:17;128.80;;;93.93;;
55330;SDS011;58851;42.984;20.336;2024-01-07T07:48:42;112.07;;;80.13;;
55330;SDS011;58851;42.984;20.336;2024-01-07T07:51:08;92.68;;;68.18;;
55330;SDS011;58851;42.984;20.336;2024-01-07T07:53:37;91.45;;;68.00;;
55330;SDS011;58851;42.984;20.336;2024-01-07T07:56:05;78.45;;;60.17;;
55330;SDS011;58851;42.984;20.336;2024-01-07T07:58:31;97.15;;;72.18;;
55330;SDS011;58851;42.984;20.336;2024-01-07T08:00:57;126.63;;;90.90;;
55330;SDS011;58851;42.984;20.336;2024-01-07T08:03:23;93.43;;;66.18;;
55330;SDS011;58851;42.984;20.336;2024-01-07T08:05:49;72.35;;;54.63;;
55330;SDS011;58851;42.984;20.336;2024-01-07T08:08:15;64.38;;;46.53;;
55330;SDS011;58851;42.984;20.336;2024-01-07T08:10:42;44.55;;;35.28;;
55330;SDS011;58851;42.984;20.336;2024-01-07T08:13:08;51.95;;;39.42;;
55330;SDS011;58851;42.984;20.336;2024-01-07T08:15:34;48.40;;;33.67;;
55330;SDS011;58851;42.984;20.336;2024-01-07T08:18:00;28.25;;;20.30;;
55330;SDS011;58851;42.984;20.336;2024-01-07T08:20:28;25.80;;;16.70;;
55330;SDS011;58851;42.984;20.336;2024-01-07T08:22:54;17.95;;;13.43;;
55330;SDS011;58851;42.984;20.336;2024-01-07T08:25:20;18.90;;;14.55;;
55330;SDS011;58851;42.984;20.336;2024-01-07T08:27:46;14.02;;;10.48;;
55330;SDS011;58851;42.984;20.336;2024-01-07T08:30:12;11.98;;;8.95;;
55330;SDS011;58851;42.984;20.336;2024-01-07T08:32:39;24.27;;;16.17;;
55330;SDS011;58851;42.984;20.336;2024-01-07T08:35:05;30.02;;;20.38;;
55330;SDS011;58851;42.984;20.336;2024-01-07T08:37:31;16.75;;;11.93;;
55330;SDS011;58851;42.984;20.336;2024-01-07T08:39:57;28.42;;;18.42;;
55330;SDS011;58851;42.984;20.336;2024-01-07T08:42:24;17.75;;;14.48;;
55330;SDS011;58851;42.984;20.336;2024-01-07T08:44:51;27.80;;;24.77;;
55330;SDS011;58851;42.984;20.336;2024-01-07T08:47:17;21.50;;;15.40;;
55330;SDS011;58851;42.984;20.336;2024-01-07T08:49:43;24.98;;;19.25;;
55330;SDS011;58851;42.984;20.336;2024-01-07T08:52:09;26.85;;;20.88;;
55330;SDS011;58851;42.984;20.336;2024-01-07T08:54:35;27.40;;;22.67;;
55330;SDS011;58851;42.984;20.336;2024-01-07T08:57:00;18.70;;;14.38;;
55330;SDS011;58851;42.984;20.336;2024-01-07T08:59:26;28.92;;;16.73;;
55330;SDS011;58851;42.984;20.336;2024-01-07T09:01:52;18.67;;;12.43;;
55330;SDS011;58851;42.984;20.336;2024-01-07T09:04:18;14.15;;;9.98;;
55330;SDS011;58851;42.984;20.336;2024-01-07T09:06:44;21.90;;;13.32;;
55330;SDS011;58851;42.984;20.336;2024-01-07T09:09:10;13.80;;;10.82;;
55330;SDS011;58851;42.984;20.336;2024-01-07T09:11:36;16.83;;;13.07;;
55330;SDS011;58851;42.984;20.336;2024-01-07T09:14:02;12.38;;;9.73;;
55330;SDS011;58851;42.984;20.336;2024-01-07T09:16:28;10.23;;;8.52;;
55330;SDS011;58851;42.984;20.336;2024-01-07T09:18:55;14.38;;;9.60;;
55330;SDS011;58851;42.984;20.336;2024-01-07T09:21:20;21.38;;;15.32;;
55330;SDS011;58851;42.984;20.336;2024-01-07T09:23:48;12.32;;;9.75;;
55330;SDS011;58851;42.984;20.336;2024-01-07T09:26:14;11.52;;;9.40;;
55330;SDS011;58851;42.984;20.336;2024-01-07T09:28:40;15.23;;;7.80;;
55330;SDS011;58851;42.984;20.336;2024-01-07T09:31:07;9.32;;;5.82;;
55330;SDS011;58851;42.984;20.336;2024-01-07T09:33:33;7.40;;;4.60;;
55330;SDS011;58851;42.984;20.336;2024-01-07T09:35:59;11.98;;;8.75;;
55330;SDS011;58851;42.984;20.336;2024-01-07T09:38:25;15.57;;;10.05;;
55330;SDS011;58851;42.984;20.336;2024-01-07T09:40:51;131.90;;;56.08;;
55330;SDS011;58851;42.984;20.336;2024-01-07T09:43:18;98.45;;;47.67;;
55330;SDS011;58851;42.984;20.336;2024-01-07T09:45:46;79.88;;;36.33;;
55330;SDS011;58851;42.984;20.336;2024-01-07T09:48:15;22.35;;;14.23;;
55330;SDS011;58851;42.984;20.336;2024-01-07T09:50:41;24.95;;;15.38;;
55330;SDS011;58851;42.984;20.336;2024-01-07T09:53:07;16.67;;;11.63;;
55330;SDS011;58851;42.984;20.336;2024-01-07T09:55:52;20.98;;;14.07;;
55330;SDS011;58851;42.984;20.336;2024-01-07T09:58:40;19.27;;;11.13;;
55330;SDS011;58851;42.984;20.336;2024-01-07T10:01:08;17.60;;;11.55;;
55330;SDS011;58851;42.984;20.336;2024-01-07T10:03:34;15.32;;;8.88;;
55330;SDS011;58851;42.984;20.336;2024-01-07T10:06:00;16.90;;;9.55;;
55330;SDS011;58851;42.984;20.336;2024-01-07T10:08:26;15.57;;;10.10;;
55330;SDS011;58851;42.984;20.336;2024-01-07T10:10:52;16.35;;;11.98;;
55330;SDS011;58851;42.984;20.336;2024-01-07T10:13:19;18.75;;;12.30;;
55330;SDS011;58851;42.984;20.336;2024-01-07T10:15:47;12.40;;;7.47;;
55330;SDS011;58851;42.984;20.336;2024-01-07T10:18:13;12.52;;;6.90;;
55330;SDS011;58851;42.984;20.336;2024-01-07T10:20:39;13.43;;;7.93;;
55330;SDS011;58851;42.984;20.336;2024-01-07T10:23:05;11.27;;;8.77;;
55330;SDS011;58851;42.984;20.336;2024-01-07T10:25:33;18.05;;;12.15;;
55330;SDS011;58851;42.984;20.336;2024-01-07T10:28:00;17.90;;;8.90;;
55330;SDS011;58851;42.984;20.336;2024-01-07T10:30:27;20.60;;;11.13;;
55330;SDS011;58851;42.984;20.336;2024-01-07T10:33:00;19.90;;;13.88;;
55330;SDS011;58851;42.984;20.336;2024-01-07T10:35:35;39.67;;;23.63;;
55330;SDS011;58851;42.984;20.336;2024-01-07T10:38:03;46.83;;;30.38;;
55330;SDS011;58851;42.984;20.336;2024-01-07T10:40:29;14.50;;;10.20;;
55330;SDS011;58851;42.984;20.336;2024-01-07T10:42:56;13.48;;;8.93;;
55330;SDS011;58851;42.984;20.336;2024-01-07T10:45:23;13.93;;;7.70;;
55330;SDS011;58851;42.984;20.336;2024-01-07T10:47:49;16.67;;;8.95;;
55330;SDS011;58851;42.984;20.336;2024-01-07T10:50:17;15.18;;;7.40;;
55330;SDS011;58851;42.984;20.336;2024-01-07T10:52:43;16.50;;;8.23;;
55330;SDS011;58851;42.984;20.336;2024-01-07T10:55:22;14.90;;;8.50;;
55330;SDS011;58851;42.984;20.336;2024-01-07T10:57:54;21.52;;;15.23;;
55330;SDS011;58851;42.984;20.336;2024-01-07T11:00:23;15.43;;;10.32;;
55330;SDS011;58851;42.984;20.336;2024-01-07T11:08:18;21.65;;;15.30;;
55330;SDS011;58851;42.984;20.336;2024-01-07T11:10:59;17.05;;;10.30;;
55330;SDS011;58851;42.984;20.336;2024-01-07T11:13:40;21.63;;;14.82;;
55330;SDS011;58851;42.984;20.336;2024-01-07T11:16:10;23.40;;;13.93;;
55330;SDS011;58851;42.984;20.336;2024-01-07T11:18:40;23.23;;;15.35;;
55330;SDS011;58851;42.984;20.336;2024-01-07T11:21:22;13.43;;;8.25;;
55330;SDS011;58851;42.984;20.336;2024-01-07T11:23:51;10.50;;;7.38;;
55330;SDS011;58851;42.984;20.336;2024-01-07T11:26:18;14.35;;;8.13;;
55330;SDS011;58851;42.984;20.336;2024-01-07T11:28:55;19.55;;;9.63;;
55330;SDS011;58851;42.984;20.336;2024-01-07T11:31:43;42.33;;;28.92;;
55330;SDS011;58851;42.984;20.336;2024-01-07T11:34:08;45.90;;;29.58;;
55330;SDS011;58851;42.984;20.336;2024-01-07T11:36:35;18.63;;;10.23;;
55330;SDS011;58851;42.984;20.336;2024-01-07T11:39:02;18.83;;;12.32;;
55330;SDS011;58851;42.984;20.336;2024-01-07T11:41:31;19.77;;;11.90;;
55330;SDS011;58851;42.984;20.336;2024-01-07T11:43:59;22.10;;;13.77;;
55330;SDS011;58851;42.984;20.336;2024-01-07T11:46:26;33.30;;;20.50;;
55330;SDS011;58851;42.984;20.336;2024-01-07T11:48:53;27.27;;;17.15;;
55330;SDS011;58851;42.984;20.336;2024-01-07T11:51:27;19.48;;;12.85;;
55330;SDS011;58851;42.984;20.336;2024-01-07T11:53:54;18.58;;;10.65;;
55330;SDS011;58851;42.984;20.336;2024-01-07T11:56:19;18.30;;;13.05;;
55330;SDS011;58851;42.984;20.336;2024-01-07T11:58:45;27.23;;;15.52;;
55330;SDS011;58851;42.984;20.336;2024-01-07T12:01:14;22.08;;;13.45;;
55330;SDS011;58851;42.984;20.336;2024-01-07T12:03:40;21.70;;;15.50;;
55330;SDS011;58851;42.984;20.336;2024-01-07T12:06:09;25.27;;;17.02;;
55330;SDS011;58851;42.984;20.336;2024-01-07T12:08:44;27.58;;;20.10;;
55330;SDS011;58851;42.984;20.336;2024-01-07T12:11:13;24.88;;;16.95;;
55330;SDS011;58851;42.984;20.336;2024-01-07T12:13:40;29.70;;;20.27;;
55330;SDS011;58851;42.984;20.336;2024-01-07T12:16:07;34.33;;;22.65;;
55330;SDS011;58851;42.984;20.336;2024-01-07T12:18:37;30.98;;;20.52;;
55330;SDS011;58851;42.984;20.336;2024-01-07T12:21:04;29.40;;;20.67;;
55330;SDS011;58851;42.984;20.336;2024-01-07T12:23:34;34.90;;;22.83;;
55330;SDS011;58851;42.984;20.336;2024-01-07T12:26:08;34.67;;;21.35;;
55330;SDS011;58851;42.984;20.336;2024-01-07T12:28:36;30.88;;;21.30;;
55330;SDS011;58851;42.984;20.336;2024-01-07T12:31:06;30.52;;;20.52;;
55330;SDS011;58851;42.984;20.336;2024-01-07T12:33:33;31.58;;;20.77;;
55330;SDS011;58851;42.984;20.336;2024-01-07T12:35:59;18.63;;;14.65;;
55330;SDS011;58851;42.984;20.336;2024-01-07T12:38:26;19.75;;;16.15;;
55330;SDS011;58851;42.984;20.336;2024-01-07T12:40:53;18.30;;;13.23;;
55330;SDS011;58851;42.984;20.336;2024-01-07T12:43:19;20.95;;;14.73;;
55330;SDS011;58851;42.984;20.336;2024-01-07T12:45:45;16.40;;;12.50;;
55330;SDS011;58851;42.984;20.336;2024-01-07T12:48:12;32.70;;;21.67;;
55330;SDS011;58851;42.984;20.336;2024-01-07T12:50:38;43.40;;;30.63;;
55330;SDS011;58851;42.984;20.336;2024-01-07T12:53:04;31.83;;;20.77;;
55330;SDS011;58851;42.984;20.336;2024-01-07T12:55:30;33.58;;;22.30;;
55330;SDS011;58851;42.984;20.336;2024-01-07T12:57:56;25.92;;;15.77;;
55330;SDS011;58851;42.984;20.336;2024-01-07T13:00:23;29.77;;;17.80;;
55330;SDS011;58851;42.984;20.336;2024-01-07T13:02:50;29.05;;;18.77;;
55330;SDS011;58851;42.984;20.336;2024-01-07T13:05:16;39.63;;;23.65;;
55330;SDS011;58851;42.984;20.336;2024-01-07T13:07:44;29.90;;;19.25;;
55330;SDS011;58851;42.984;20.336;2024-01-07T13:10:10;29.38;;;18.40;;
55330;SDS011;58851;42.984;20.336;2024-01-07T13:12:35;62.30;;;34.55;;
55330;SDS011;58851;42.984;20.336;2024-01-07T13:15:02;44.90;;;27.15;;
55330;SDS011;58851;42.984;20.336;2024-01-07T13:17:28;52.08;;;30.10;;
55330;SDS011;58851;42.984;20.336;2024-01-07T13:19:55;74.32;;;44.67;;
55330;SDS011;58851;42.984;20.336;2024-01-07T13:22:21;63.85;;;34.13;;
55330;SDS011;58851;42.984;20.336;2024-01-07T13:24:47;63.03;;;38.60;;
55330;SDS011;58851;42.984;20.336;2024-01-07T13:27:14;54.08;;;32.83;;
55330;SDS011;58851;42.984;20.336;2024-01-07T13:29:40;29.95;;;17.27;;
55330;SDS011;58851;42.984;20.336;2024-01-07T13:32:06;17.42;;;11.05;;
55330;SDS011;58851;42.984;20.336;2024-01-07T13:34:32;27.48;;;20.35;;
55330;SDS011;58851;42.984;20.336;2024-01-07T13:36:58;20.15;;;11.98;;
55330;SDS011;58851;42.984;20.336;2024-01-07T13:39:23;27.08;;;16.02;;
55330;SDS011;58851;42.984;20.336;2024-01-07T13:41:50;186.55;;;116.60;;
55330;SDS011;58851;42.984;20.336;2024-01-07T13:44:15;22.77;;;16.13;;
55330;SDS011;58851;42.984;20.336;2024-01-07T13:46:45;24.02;;;13.27;;
55330;SDS011;58851;42.984;20.336;2024-01-07T13:49:12;28.25;;;19.23;;
55330;SDS011;58851;42.984;20.336;2024-01-07T13:51:38;38.72;;;30.02;;
55330;SDS011;58851;42.984;20.336;2024-01-07T13:54:05;26.88;;;17.23;;
55330;SDS011;58851;42.984;20.336;2024-01-07T13:56:32;24.58;;;13.13;;
55330;SDS011;58851;42.984;20.336;2024-01-07T13:59:01;48.75;;;26.45;;
55330;SDS011;58851;42.984;20.336;2024-01-07T14:01:28;32.83;;;13.50;;
55330;SDS011;58851;42.984;20.336;2024-01-07T14:03:54;30.10;;;14.35;;
55330;SDS011;58851;42.984;20.336;2024-01-07T14:06:21;22.30;;;11.50;;
55330;SDS011;58851;42.984;20.336;2024-01-07T14:08:46;31.58;;;14.18;;
55330;SDS011;58851;42.984;20.336;2024-01-07T14:11:12;20.67;;;10.55;;